sensor_id;sensor_type;location;lat;lon;timestamp;temperature;humidity
13848;DHT22;6994;49.752;6.094;2024-03-23T00:54:31;10.30;99.90
13848;DHT22;6994;49.752;6.094;2024-03-23T00:56:58;10.20;99.90
13848;DHT22;6994;49.752;6.094;2024-03-23T00:59:26;10.00;99.90
13848;DHT22;6994;49.752;6.094;2024-03-23T01:01:55;9.90;99.90
13848;DHT22;6994;49.752;6.094;2024-03-23T01:04:23;9.90;99.90
13848;DHT22;6994;49.752;6.094;2024-03-23T01:06:50;9.90;99.90
13848;DHT22;6994;49.752;6.094;2024-03-23T01:09:17;9.80;99.90
13848;DHT22;6994;49.752;6.094;2024-03-23T01:11:44;9.80;99.90
13848;DHT22;6994;49.752;6.094;2024-03-23T01:14:11;9.80;99.90
13848;DHT22;6994;49.752;6.094;2024-03-23T01:16:39;9.80;99.90
13848;DHT22;6994;49.752;6.094;2024-03-23T01:19:07;9.80;99.90
13848;DHT22;6994;49.752;6.094;2024-03-23T01:21:34;9.70;99.90
13848;DHT22;6994;49.752;6.094;2024-03-23T01:24:01;9.80;99.90
13848;DHT22;6994;49.752;6.094;2024-03-23T01:26:29;9.70;99.90
13848;DHT22;6994;49.752;6.094;2024-03-23T01:28:57;9.70;99.90
13848;DHT22;6994;49.752;6.094;2024-03-23T01:31:25;9.60;99.90
13848;DHT22;6994;49.752;6.094;2024-03-23T01:33:52;9.60;99.90
13848;DHT22;6994;49.752;6.094;2024-03-23T01:36:19;9.50;99.90
13848;DHT22;6994;49.752;6.094;2024-03-23T01:38:47;9.20;99.90
13848;DHT22;6994;49.752;6.094;2024-03-23T01:41:15;9.20;99.90
13848;DHT22;6994;49.752;6.094;2024-03-23T01:43:42;9.10;99.90
13848;DHT22;6994;49.752;6.094;2024-03-23T01:46:09;9.00;99.90
13848;DHT22;6994;49.752;6.094;2024-03-23T01:48:36;8.90;99.90
13848;DHT22;6994;49.752;6.094;2024-03-23T01:51:03;8.80;99.90
13848;DHT22;6994;49.752;6.094;2024-03-23T01:53:31;8.60;99.90
13848;DHT22;6994;49.752;6.094;2024-03-23T01:55:58;8.40;99.90
13848;DHT22;6994;49.752;6.094;2024-03-23T01:58:25;8.30;99.90
13848;DHT22;6994;49.752;6.094;2024-03-23T02:00:52;8.20;99.90
13848;DHT22;6994;49.752;6.094;2024-03-23T02:03:26;8.10;99.90
13848;DHT22;6994;49.752;6.094;2024-03-23T02:05:53;8.00;99.90
13848;DHT22;6994;49.752;6.094;2024-03-23T02:10:53;7.90;99.90
13848;DHT22;6994;49.752;6.094;2024-03-23T02:13:21;7.80;99.90
13848;DHT22;6994;49.752;6.094;2024-03-23T02:15:48;7.90;99.90
13848;DHT22;6994;49.752;6.094;2024-03-23T02:18:15;7.90;99.90
13848;DHT22;6994;49.752;6.094;2024-03-23T02:20:42;8.10;99.90
13848;DHT22;6994;49.752;6.094;2024-03-23T02:23:16;8.10;99.90
13848;DHT22;6994;49.752;6.094;2024-03-23T02:25:42;8.30;99.90
13848;DHT22;6994;49.752;6.094;2024-03-23T02:28:10;8.30;99.90
13848;DHT22;6994;49.752;6.094;2024-03-23T02:30:37;8.20;99.90
13848;DHT22;6994;49.752;6.094;2024-03-23T02:33:04;8.10;99.90
13848;DHT22;6994;49.752;6.094;2024-03-23T02:35:32;8.00;99.90
13848;DHT22;6994;49.752;6.094;2024-03-23T02:37:58;7.90;99.90
13848;DHT22;6994;49.752;6.094;2024-03-23T02:40:26;7.90;99.90
13848;DHT22;6994;49.752;6.094;2024-03-23T02:42:53;8.00;99.90
13848;DHT22;6994;49.752;6.094;2024-03-23T02:45:21;8.20;99.90
13848;DHT22;6994;49.752;6.094;2024-03-23T02:47:49;8.20;99.90
13848;DHT22;6994;49.752;6.094;2024-03-23T02:50:18;8.10;99.90
13848;DHT22;6994;49.752;6.094;2024-03-23T02:52:45;8.00;99.90
13848;DHT22;6994;49.752;6.094;2024-03-23T02:55:13;8.10;99.90
13848;DHT22;6994;49.752;6.094;2024-03-23T02:57:41;8.10;99.90
13848;DHT22;6994;49.752;6.094;2024-03-23T03:00:09;8.00;99.90
13848;DHT22;6994;49.752;6.094;2024-03-23T03:02:36;8.00;99.90
13848;DHT22;6994;49.752;6.094;2024-03-23T03:05:04;7.90;99.90
13848;DHT22;6994;49.752;6.094;2024-03-23T03:07:31;7.90;99.90
13848;DHT22;6994;49.752;6.094;2024-03-23T03:09:59;7.70;99.90
13848;DHT22;6994;49.752;6.094;2024-03-23T03:12:27;7.70;99.90
13848;DHT22;6994;49.752;6.094;2024-03-23T03:14:55;7.70;99.90
13848;DHT22;6994;49.752;6.094;2024-03-23T03:17:22;7.60;99.90
13848;DHT22;6994;49.752;6.094;2024-03-23T03:19:49;7.60;99.90
13848;DHT22;6994;49.752;6.094;2024-03-23T03:22:17;7.60;99.90
13848;DHT22;6994;49.752;6.094;2024-03-23T03:24:44;7.60;99.90
13848;DHT22;6994;49.752;6.094;2024-03-23T03:27:11;7.60;99.90
13848;DHT22;6994;49.752;6.094;2024-03-23T03:29:38;7.50;99.90
13848;DHT22;6994;49.752;6.094;2024-03-23T03:32:05;7.40;99.90
13848;DHT22;6994;49.752;6.094;2024-03-23T03:34:33;7.30;99.90
13848;DHT22;6994;49.752;6.094;2024-03-23T03:37:01;7.20;99.90
13848;DHT22;6994;49.752;6.094;2024-03-23T03:39:28;7.10;99.90
13848;DHT22;6994;49.752;6.094;2024-03-23T03:41:56;7.00;99.90
13848;DHT22;6994;49.752;6.094;2024-03-23T03:44:24;7.00;99.90
13848;DHT22;6994;49.752;6.094;2024-03-23T03:46:51;6.90;99.90
13848;DHT22;6994;49.752;6.094;2024-03-23T03:49:18;7.00;99.90
13848;DHT22;6994;49.752;6.094;2024-03-23T03:51:45;7.00;99.90
13848;DHT22;6994;49.752;6.094;2024-03-23T03:54:12;6.90;99.90
13848;DHT22;6994;49.752;6.094;2024-03-23T03:56:40;6.80;99.90
13848;DHT22;6994;49.752;6.094;2024-03-23T03:59:07;6.70;99.90
13848;DHT22;6994;49.752;6.094;2024-03-23T04:01:34;6.60;99.90
13848;DHT22;6994;49.752;6.094;2024-03-23T04:04:01;6.50;99.90
13848;DHT22;6994;49.752;6.094;2024-03-23T04:06:28;6.40;99.90
13848;DHT22;6994;49.752;6.094;2024-03-23T04:08:56;6.40;99.90
13848;DHT22;6994;49.752;6.094;2024-03-23T04:11:23;6.30;99.90
13848;DHT22;6994;49.752;6.094;2024-03-23T04:13:50;6.30;99.90
13848;DHT22;6994;49.752;6.094;2024-03-23T04:16:26;6.20;99.90
13848;DHT22;6994;49.752;6.094;2024-03-23T04:18:53;6.20;99.90
13848;DHT22;6994;49.752;6.094;2024-03-23T04:21:24;6.40;99.90
13848;DHT22;6994;49.752;6.094;2024-03-23T04:23:52;6.40;99.90
13848;DHT22;6994;49.752;6.094;2024-03-23T04:26:20;6.40;99.90
13848;DHT22;6994;49.752;6.094;2024-03-23T04:28:48;6.30;99.90
13848;DHT22;6994;49.752;6.094;2024-03-23T04:31:15;6.30;99.90
13848;DHT22;6994;49.752;6.094;2024-03-23T04:33:42;6.30;99.90
13848;DHT22;6994;49.752;6.094;2024-03-23T04:36:10;6.30;99.90
13848;DHT22;6994;49.752;6.094;2024-03-23T04:38:37;6.30;99.90
13848;DHT22;6994;49.752;6.094;2024-03-23T04:41:04;6.30;99.90
13848;DHT22;6994;49.752;6.094;2024-03-23T04:43:31;6.30;99.90
13848;DHT22;6994;49.752;6.094;2024-03-23T04:45:58;6.30;99.90
13848;DHT22;6994;49.752;6.094;2024-03-23T04:48:26;6.30;99.90
13848;DHT22;6994;49.752;6.094;2024-03-23T04:50:57;6.20;99.90
13848;DHT22;6994;49.752;6.094;2024-03-23T04:53:23;6.20;99.90
13848;DHT22;6994;49.752;6.094;2024-03-23T04:55:50;6.10;99.90
13848;DHT22;6994;49.752;6.094;2024-03-23T04:58:17;6.10;99.90
13848;DHT22;6994;49.752;6.094;2024-03-23T05:00:45;6.00;99.90
13848;DHT22;6994;49.752;6.094;2024-03-23T05:03:12;5.90;99.90
13848;DHT22;6994;49.752;6.094;2024-03-23T05:05:39;5.80;99.90
13848;DHT22;6994;49.752;6.094;2024-03-23T05:08:06;5.80;99.90
13848;DHT22;6994;49.752;6.094;2024-03-23T05:10:33;5.70;99.90
13848;DHT22;6994;49.752;6.094;2024-03-23T05:13:01;5.60;99.90
13848;DHT22;6994;49.752;6.094;2024-03-23T05:15:29;5.50;99.90
13848;DHT22;6994;49.752;6.094;2024-03-23T05:17:57;5.40;99.90
13848;DHT22;6994;49.752;6.094;2024-03-23T05:20:25;5.40;99.90
13848;DHT22;6994;49.752;6.094;2024-03-23T05:22:54;5.30;99.90
13848;DHT22;6994;49.752;6.094;2024-03-23T05:25:20;5.30;99.90
13848;DHT22;6994;49.752;6.094;2024-03-23T05:27:47;5.30;99.90
13848;DHT22;6994;49.752;6.094;2024-03-23T05:30:14;5.20;99.90
13848;DHT22;6994;49.752;6.094;2024-03-23T05:32:41;5.20;99.90
13848;DHT22;6994;49.752;6.094;2024-03-23T05:35:09;5.20;99.90
13848;DHT22;6994;49.752;6.094;2024-03-23T05:37:36;5.10;99.90
13848;DHT22;6994;49.752;6.094;2024-03-23T05:40:03;5.10;99.90
13848;DHT22;6994;49.752;6.094;2024-03-23T05:42:31;5.10;99.90
13848;DHT22;6994;49.752;6.094;2024-03-23T05:44:59;5.00;99.90
13848;DHT22;6994;49.752;6.094;2024-03-23T05:47:26;5.00;99.90
13848;DHT22;6994;49.752;6.094;2024-03-23T05:49:53;5.00;99.90
13848;DHT22;6994;49.752;6.094;2024-03-23T05:52:21;5.00;99.90
13848;DHT22;6994;49.752;6.094;2024-03-23T05:54:48;4.90;99.90
13848;DHT22;6994;49.752;6.094;2024-03-23T05:57:16;5.00;99.90
13848;DHT22;6994;49.752;6.094;2024-03-23T05:59:43;5.10;99.90
13848;DHT22;6994;49.752;6.094;2024-03-23T06:02:10;5.20;99.90
13848;DHT22;6994;49.752;6.094;2024-03-23T06:04:37;5.30;99.90
13848;DHT22;6994;49.752;6.094;2024-03-23T06:07:04;5.40;99.90
13848;DHT22;6994;49.752;6.094;2024-03-23T06:09:34;5.50;99.90
13848;DHT22;6994;49.752;6.094;2024-03-23T06:12:01;5.60;99.90
13848;DHT22;6994;49.752;6.094;2024-03-23T06:14:29;5.60;99.90
13848;DHT22;6994;49.752;6.094;2024-03-23T06:16:56;5.90;99.90
13848;DHT22;6994;49.752;6.094;2024-03-23T06:19:23;6.00;99.90
13848;DHT22;6994;49.752;6.094;2024-03-23T06:21:50;6.40;99.90
13848;DHT22;6994;49.752;6.094;2024-03-23T06:24:17;6.50;99.90
13848;DHT22;6994;49.752;6.094;2024-03-23T06:26:45;6.80;99.90
13848;DHT22;6994;49.752;6.094;2024-03-23T06:29:12;7.10;99.90
13848;DHT22;6994;49.752;6.094;2024-03-23T06:31:39;7.40;99.90
13848;DHT22;6994;49.752;6.094;2024-03-23T06:34:06;7.40;99.90
13848;DHT22;6994;49.752;6.094;2024-03-23T06:36:34;7.60;99.90
13848;DHT22;6994;49.752;6.094;2024-03-23T06:39:01;7.60;99.90
13848;DHT22;6994;49.752;6.094;2024-03-23T06:41:28;7.80;99.90
13848;DHT22;6994;49.752;6.094;2024-03-23T06:43:55;7.70;99.90
13848;DHT22;6994;49.752;6.094;2024-03-23T06:46:22;7.70;99.90
13848;DHT22;6994;49.752;6.094;2024-03-23T06:48:49;7.60;99.90
13848;DHT22;6994;49.752;6.094;2024-03-23T06:51:17;7.80;99.90
13848;DHT22;6994;49.752;6.094;2024-03-23T06:53:44;7.80;99.90
13848;DHT22;6994;49.752;6.094;2024-03-23T06:56:11;7.70;99.90
13848;DHT22;6994;49.752;6.094;2024-03-23T06:58:38;7.60;99.90
13848;DHT22;6994;49.752;6.094;2024-03-23T07:01:05;7.50;99.90
13848;DHT22;6994;49.752;6.094;2024-03-23T07:03:33;7.50;99.90
13848;DHT22;6994;49.752;6.094;2024-03-23T07:06:00;7.70;99.90
13848;DHT22;6994;49.752;6.094;2024-03-23T07:08:27;7.60;99.90
13848;DHT22;6994;49.752;6.094;2024-03-23T07:10:54;7.50;99.90
13848;DHT22;6994;49.752;6.094;2024-03-23T07:13:22;7.30;99.90
13848;DHT22;6994;49.752;6.094;2024-03-23T07:15:52;7.20;99.90
13848;DHT22;6994;49.752;6.094;2024-03-23T07:18:20;7.20;99.90
13848;DHT22;6994;49.752;6.094;2024-03-23T07:20:57;7.20;99.90
13848;DHT22;6994;49.752;6.094;2024-03-23T07:23:24;7.20;99.90
13848;DHT22;6994;49.752;6.094;2024-03-23T07:26:04;7.20;99.90
13848;DHT22;6994;49.752;6.094;2024-03-23T07:28:33;7.20;99.90
13848;DHT22;6994;49.752;6.094;2024-03-23T07:31:04;7.30;99.90
13848;DHT22;6994;49.752;6.094;2024-03-23T07:33:31;7.20;99.90
13848;DHT22;6994;49.752;6.094;2024-03-23T07:35:59;7.40;99.90
13848;DHT22;6994;49.752;6.094;2024-03-23T07:38:27;7.40;99.90
13848;DHT22;6994;49.752;6.094;2024-03-23T07:41:07;7.50;99.90
13848;DHT22;6994;49.752;6.094;2024-03-23T07:43:34;7.50;99.90
13848;DHT22;6994;49.752;6.094;2024-03-23T07:46:01;7.60;99.90
13848;DHT22;6994;49.752;6.094;2024-03-23T07:48:28;7.60;99.90
13848;DHT22;6994;49.752;6.094;2024-03-23T07:51:02;7.70;99.90
13848;DHT22;6994;49.752;6.094;2024-03-23T07:53:29;7.80;99.90
13848;DHT22;6994;49.752;6.094;2024-03-23T07:55:57;8.10;99.90
13848;DHT22;6994;49.752;6.094;2024-03-23T07:58:25;8.30;99.90
13848;DHT22;6994;49.752;6.094;2024-03-23T08:00:55;8.50;99.90
13848;DHT22;6994;49.752;6.094;2024-03-23T08:03:22;8.40;99.90
13848;DHT22;6994;49.752;6.094;2024-03-23T08:05:50;8.70;99.90
13848;DHT22;6994;49.752;6.094;2024-03-23T08:08:18;8.80;99.90
13848;DHT22;6994;49.752;6.094;2024-03-23T08:10:48;8.70;99.90
13848;DHT22;6994;49.752;6.094;2024-03-23T08:13:15;8.80;99.90
13848;DHT22;6994;49.752;6.094;2024-03-23T08:15:42;8.90;99.90
13848;DHT22;6994;49.752;6.094;2024-03-23T08:18:13;9.00;99.90
13848;DHT22;6994;49.752;6.094;2024-03-23T08:20:37;9.00;99.90
13848;DHT22;6994;49.752;6.094;2024-03-23T08:23:06;9.20;99.90
13848;DHT22;6994;49.752;6.094;2024-03-23T08:25:34;9.20;99.90
13848;DHT22;6994;49.752;6.094;2024-03-23T08:28:01;9.20;99.90
13848;DHT22;6994;49.752;6.094;2024-03-23T08:30:28;9.10;99.90
13848;DHT22;6994;49.752;6.094;2024-03-23T08:32:55;9.20;99.90
13848;DHT22;6994;49.752;6.094;2024-03-23T08:35:22;9.50;99.90
13848;DHT22;6994;49.752;6.094;2024-03-23T08:37:50;9.60;99.90
13848;DHT22;6994;49.752;6.094;2024-03-23T08:40:17;9.70;99.90
13848;DHT22;6994;49.752;6.094;2024-03-23T08:42:44;9.80;99.90
13848;DHT22;6994;49.752;6.094;2024-03-23T08:45:11;9.80;99.90
13848;DHT22;6994;49.752;6.094;2024-03-23T08:47:38;10.00;99.90
13848;DHT22;6994;49.752;6.094;2024-03-23T08:50:06;10.10;99.90
13848;DHT22;6994;49.752;6.094;2024-03-23T08:52:33;10.00;99.90
13848;DHT22;6994;49.752;6.094;2024-03-23T08:55:00;9.80;99.90
13848;DHT22;6994;49.752;6.094;2024-03-23T08:57:27;9.70;99.90
13848;DHT22;6994;49.752;6.094;2024-03-23T08:59:54;9.60;99.90
13848;DHT22;6994;49.752;6.094;2024-03-23T09:02:22;9.30;99.90
13848;DHT22;6994;49.752;6.094;2024-03-23T09:04:50;9.30;99.90
13848;DHT22;6994;49.752;6.094;2024-03-23T09:07:17;9.40;99.90
13848;DHT22;6994;49.752;6.094;2024-03-23T09:09:44;9.40;99.90
13848;DHT22;6994;49.752;6.094;2024-03-23T09:12:11;9.50;99.90
13848;DHT22;6994;49.752;6.094;2024-03-23T09:14:39;9.60;99.90
13848;DHT22;6994;49.752;6.094;2024-03-23T09:17:07;9.60;99.90
13848;DHT22;6994;49.752;6.094;2024-03-23T09:19:35;9.50;99.90
13848;DHT22;6994;49.752;6.094;2024-03-23T09:22:03;9.50;99.90
13848;DHT22;6994;49.752;6.094;2024-03-23T09:24:30;9.50;99.90
13848;DHT22;6994;49.752;6.094;2024-03-23T09:26:57;9.60;99.90
13848;DHT22;6994;49.752;6.094;2024-03-23T09:29:25;9.70;99.90
13848;DHT22;6994;49.752;6.094;2024-03-23T09:31:53;9.70;99.90
13848;DHT22;6994;49.752;6.094;2024-03-23T09:34:20;9.70;99.90
13848;DHT22;6994;49.752;6.094;2024-03-23T09:36:50;9.70;99.90
13848;DHT22;6994;49.752;6.094;2024-03-23T09:39:15;9.70;99.90
13848;DHT22;6994;49.752;6.094;2024-03-23T09:41:42;9.70;99.90
13848;DHT22;6994;49.752;6.094;2024-03-23T09:44:09;9.80;99.90
13848;DHT22;6994;49.752;6.094;2024-03-23T09:46:36;9.80;99.90
13848;DHT22;6994;49.752;6.094;2024-03-23T09:49:03;10.00;99.90
13848;DHT22;6994;49.752;6.094;2024-03-23T09:51:31;10.10;99.90
13848;DHT22;6994;49.752;6.094;2024-03-23T09:53:58;10.50;99.90
13848;DHT22;6994;49.752;6.094;2024-03-23T09:56:26;10.60;99.90
13848;DHT22;6994;49.752;6.094;2024-03-23T09:59:01;10.70;99.90
13848;DHT22;6994;49.752;6.094;2024-03-23T10:01:29;10.70;99.90
13848;DHT22;6994;49.752;6.094;2024-03-23T10:03:55;10.60;99.90
13848;DHT22;6994;49.752;6.094;2024-03-23T10:06:23;10.30;99.90
13848;DHT22;6994;49.752;6.094;2024-03-23T10:08:53;10.30;99.90
13848;DHT22;6994;49.752;6.094;2024-03-23T10:11:21;9.80;99.90
13848;DHT22;6994;49.752;6.094;2024-03-23T10:13:48;9.30;99.90
13848;DHT22;6994;49.752;6.094;2024-03-23T10:16:21;8.70;99.90
13848;DHT22;6994;49.752;6.094;2024-03-23T10:18:48;8.00;99.90
13848;DHT22;6994;49.752;6.094;2024-03-23T10:21:16;7.40;99.90
13848;DHT22;6994;49.752;6.094;2024-03-23T10:23:43;6.80;99.90
13848;DHT22;6994;49.752;6.094;2024-03-23T10:26:24;6.50;99.90
13848;DHT22;6994;49.752;6.094;2024-03-23T10:28:55;6.30;99.90
13848;DHT22;6994;49.752;6.094;2024-03-23T10:31:22;6.20;99.90
13848;DHT22;6994;49.752;6.094;2024-03-23T10:33:50;6.00;99.90
13848;DHT22;6994;49.752;6.094;2024-03-23T10:36:17;6.00;99.90
13848;DHT22;6994;49.752;6.094;2024-03-23T10:38:44;6.00;99.90
13848;DHT22;6994;49.752;6.094;2024-03-23T10:41:12;6.10;99.90
13848;DHT22;6994;49.752;6.094;2024-03-23T10:43:40;6.20;99.90
13848;DHT22;6994;49.752;6.094;2024-03-23T10:46:07;6.20;99.90
13848;DHT22;6994;49.752;6.094;2024-03-23T10:48:34;6.40;99.90
13848;DHT22;6994;49.752;6.094;2024-03-23T10:51:02;6.60;99.90
13848;DHT22;6994;49.752;6.094;2024-03-23T10:53:29;6.90;99.90
13848;DHT22;6994;49.752;6.094;2024-03-23T10:55:56;7.20;99.90
13848;DHT22;6994;49.752;6.094;2024-03-23T10:58:25;7.40;99.90
13848;DHT22;6994;49.752;6.094;2024-03-23T11:00:50;7.50;99.90
13848;DHT22;6994;49.752;6.094;2024-03-23T11:03:30;7.70;99.90
13848;DHT22;6994;49.752;6.094;2024-03-23T11:05:57;8.00;99.90
13848;DHT22;6994;49.752;6.094;2024-03-23T11:08:33;8.20;99.90
13848;DHT22;6994;49.752;6.094;2024-03-23T11:11:19;8.80;99.90
13848;DHT22;6994;49.752;6.094;2024-03-23T11:13:53;8.80;99.90
13848;DHT22;6994;49.752;6.094;2024-03-23T11:16:25;9.20;99.90
13848;DHT22;6994;49.752;6.094;2024-03-23T11:18:52;9.50;99.90
13848;DHT22;6994;49.752;6.094;2024-03-23T11:21:54;9.70;99.90
13848;DHT22;6994;49.752;6.094;2024-03-23T11:24:21;9.90;99.90
13848;DHT22;6994;49.752;6.094;2024-03-23T11:26:48;10.10;99.90
13848;DHT22;6994;49.752;6.094;2024-03-23T11:29:16;10.10;99.90
13848;DHT22;6994;49.752;6.094;2024-03-23T11:31:49;10.10;99.90
13848;DHT22;6994;49.752;6.094;2024-03-23T11:34:16;10.40;99.90
13848;DHT22;6994;49.752;6.094;2024-03-23T11:36:44;10.90;99.90
13848;DHT22;6994;49.752;6.094;2024-03-23T11:39:19;11.20;99.90
13848;DHT22;6994;49.752;6.094;2024-03-23T11:41:49;11.20;99.90
13848;DHT22;6994;49.752;6.094;2024-03-23T11:44:22;11.20;99.90
13848;DHT22;6994;49.752;6.094;2024-03-23T11:46:51;11.00;99.90
13848;DHT22;6994;49.752;6.094;2024-03-23T11:49:27;10.80;99.90
13848;DHT22;6994;49.752;6.094;2024-03-23T11:51:55;10.70;99.90
13848;DHT22;6994;49.752;6.094;2024-03-23T11:54:21;10.80;99.90
13848;DHT22;6994;49.752;6.094;2024-03-23T11:56:58;10.50;99.90
13848;DHT22;6994;49.752;6.094;2024-03-23T11:59:40;10.10;99.90
13848;DHT22;6994;49.752;6.094;2024-03-23T12:02:11;9.20;99.90
13848;DHT22;6994;49.752;6.094;2024-03-23T12:04:37;8.60;99.90
13848;DHT22;6994;49.752;6.094;2024-03-23T12:07:17;8.30;99.90
13848;DHT22;6994;49.752;6.094;2024-03-23T12:09:47;8.20;99.90
13848;DHT22;6994;49.752;6.094;2024-03-23T12:12:17;8.50;99.90
13848;DHT22;6994;49.752;6.094;2024-03-23T12:14:43;8.40;99.90
13848;DHT22;6994;49.752;6.094;2024-03-23T12:17:14;8.50;99.90
13848;DHT22;6994;49.752;6.094;2024-03-23T12:19:46;8.50;99.90
13848;DHT22;6994;49.752;6.094;2024-03-23T12:22:14;9.70;99.90
13848;DHT22;6994;49.752;6.094;2024-03-23T12:24:42;10.20;99.90
13848;DHT22;6994;49.752;6.094;2024-03-23T12:27:10;10.90;99.90
13848;DHT22;6994;49.752;6.094;2024-03-23T12:29:38;11.70;99.90
13848;DHT22;6994;49.752;6.094;2024-03-23T12:32:05;11.70;99.90
13848;DHT22;6994;49.752;6.094;2024-03-23T12:34:32;12.50;99.90
13848;DHT22;6994;49.752;6.094;2024-03-23T12:37:00;13.00;99.90
13848;DHT22;6994;49.752;6.094;2024-03-23T12:39:27;13.80;99.90
13848;DHT22;6994;49.752;6.094;2024-03-23T12:41:54;14.30;99.90
13848;DHT22;6994;49.752;6.094;2024-03-23T12:44:21;14.70;99.90
13848;DHT22;6994;49.752;6.094;2024-03-23T12:46:48;14.80;99.90
13848;DHT22;6994;49.752;6.094;2024-03-23T12:49:16;14.70;99.90
13848;DHT22;6994;49.752;6.094;2024-03-23T12:51:55;14.20;99.90
13848;DHT22;6994;49.752;6.094;2024-03-23T12:54:22;13.50;99.90
13848;DHT22;6994;49.752;6.094;2024-03-23T12:56:49;12.80;99.80
13848;DHT22;6994;49.752;6.094;2024-03-23T12:59:17;12.10;99.90
13848;DHT22;6994;49.752;6.094;2024-03-23T13:01:44;12.00;99.90
13848;DHT22;6994;49.752;6.094;2024-03-23T13:04:11;12.30;99.90
13848;DHT22;6994;49.752;6.094;2024-03-23T13:06:38;12.10;99.90
13848;DHT22;6994;49.752;6.094;2024-03-23T13:09:05;11.80;99.80
13848;DHT22;6994;49.752;6.094;2024-03-23T13:11:33;11.40;99.90
13848;DHT22;6994;49.752;6.094;2024-03-23T13:14:00;11.30;99.90
13848;DHT22;6994;49.752;6.094;2024-03-23T13:16:27;10.80;99.90
13848;DHT22;6994;49.752;6.094;2024-03-23T13:18:54;10.60;99.90
13848;DHT22;6994;49.752;6.094;2024-03-23T13:21:21;10.40;99.90
13848;DHT22;6994;49.752;6.094;2024-03-23T13:23:49;10.80;99.90
13848;DHT22;6994;49.752;6.094;2024-03-23T13:26:16;11.50;99.90
13848;DHT22;6994;49.752;6.094;2024-03-23T13:28:44;12.40;99.90
13848;DHT22;6994;49.752;6.094;2024-03-23T13:31:12;12.50;99.90
13848;DHT22;6994;49.752;6.094;2024-03-23T13:33:39;12.40;99.90
13848;DHT22;6994;49.752;6.094;2024-03-23T13:36:06;12.30;99.90
13848;DHT22;6994;49.752;6.094;2024-03-23T13:38:33;11.90;99.90
13848;DHT22;6994;49.752;6.094;2024-03-23T13:41:01;11.10;99.90
13848;DHT22;6994;49.752;6.094;2024-03-23T13:43:29;10.50;99.90
13848;DHT22;6994;49.752;6.094;2024-03-23T13:45:58;9.90;99.90
13848;DHT22;6994;49.752;6.094;2024-03-23T13:48:26;9.20;99.90
13848;DHT22;6994;49.752;6.094;2024-03-23T13:51:03;8.50;99.90
13848;DHT22;6994;49.752;6.094;2024-03-23T13:53:29;8.50;99.90
13848;DHT22;6994;49.752;6.094;2024-03-23T13:55:57;7.40;99.90
13848;DHT22;6994;49.752;6.094;2024-03-23T13:58:25;7.00;99.90
13848;DHT22;6994;49.752;6.094;2024-03-23T14:00:53;7.00;99.90
13848;DHT22;6994;49.752;6.094;2024-03-23T14:03:20;6.70;99.90
13848;DHT22;6994;49.752;6.094;2024-03-23T14:05:48;6.40;99.90
13848;DHT22;6994;49.752;6.094;2024-03-23T14:08:15;6.40;99.90
13848;DHT22;6994;49.752;6.094;2024-03-23T14:10:42;6.20;99.90
13848;DHT22;6994;49.752;6.094;2024-03-23T14:13:09;6.10;99.90
13848;DHT22;6994;49.752;6.094;2024-03-23T14:15:36;6.00;99.90
13848;DHT22;6994;49.752;6.094;2024-03-23T14:18:04;6.90;99.90
13848;DHT22;6994;49.752;6.094;2024-03-23T14:20:32;6.90;99.90
13848;DHT22;6994;49.752;6.094;2024-03-23T14:23:00;8.80;99.90
13848;DHT22;6994;49.752;6.094;2024-03-23T14:25:27;8.80;99.90
13848;DHT22;6994;49.752;6.094;2024-03-23T14:27:54;9.60;99.90
13848;DHT22;6994;49.752;6.094;2024-03-23T14:30:21;10.40;99.90
13848;DHT22;6994;49.752;6.094;2024-03-23T14:32:48;10.80;99.90
13848;DHT22;6994;49.752;6.094;2024-03-23T14:35:16;11.00;99.90
13848;DHT22;6994;49.752;6.094;2024-03-23T14:37:44;11.10;99.90
13848;DHT22;6994;49.752;6.094;2024-03-23T14:40:12;11.10;99.90
13848;DHT22;6994;49.752;6.094;2024-03-23T14:42:39;11.60;99.90
13848;DHT22;6994;49.752;6.094;2024-03-23T14:45:06;12.10;99.90
13848;DHT22;6994;49.752;6.094;2024-03-23T14:47:33;12.50;99.90
13848;DHT22;6994;49.752;6.094;2024-03-23T14:50:00;12.60;99.90
13848;DHT22;6994;49.752;6.094;2024-03-23T14:52:28;12.50;99.90
13848;DHT22;6994;49.752;6.094;2024-03-23T14:54:55;12.20;99.90
13848;DHT22;6994;49.752;6.094;2024-03-23T14:57:22;11.60;99.90
13848;DHT22;6994;49.752;6.094;2024-03-23T14:59:49;11.00;99.90
13848;DHT22;6994;49.752;6.094;2024-03-23T15:02:16;10.80;99.90
13848;DHT22;6994;49.752;6.094;2024-03-23T15:04:44;10.50;99.90
13848;DHT22;6994;49.752;6.094;2024-03-23T15:07:11;10.10;99.90
13848;DHT22;6994;49.752;6.094;2024-03-23T15:09:38;9.80;99.90
13848;DHT22;6994;49.752;6.094;2024-03-23T15:12:05;9.60;99.90
13848;DHT22;6994;49.752;6.094;2024-03-23T15:14:32;9.40;99.90
13848;DHT22;6994;49.752;6.094;2024-03-23T15:17:00;9.20;99.90
13848;DHT22;6994;49.752;6.094;2024-03-23T15:19:28;9.20;99.90
13848;DHT22;6994;49.752;6.094;2024-03-23T15:21:56;9.20;99.90
13848;DHT22;6994;49.752;6.094;2024-03-23T15:24:23;9.30;99.90
13848;DHT22;6994;49.752;6.094;2024-03-23T15:26:50;9.30;99.90
13848;DHT22;6994;49.752;6.094;2024-03-23T15:29:17;9.40;99.90
13848;DHT22;6994;49.752;6.094;2024-03-23T15:31:44;9.30;99.90
13848;DHT22;6994;49.752;6.094;2024-03-23T15:34:12;9.10;99.90
13848;DHT22;6994;49.752;6.094;2024-03-23T15:36:39;8.90;99.90
13848;DHT22;6994;49.752;6.094;2024-03-23T15:39:06;8.80;99.90
13848;DHT22;6994;49.752;6.094;2024-03-23T15:41:34;8.70;99.90
13848;DHT22;6994;49.752;6.094;2024-03-23T15:44:00;8.50;99.90
13848;DHT22;6994;49.752;6.094;2024-03-23T15:46:28;8.30;99.90
13848;DHT22;6994;49.752;6.094;2024-03-23T15:48:55;8.20;99.90
13848;DHT22;6994;49.752;6.094;2024-03-23T15:51:22;8.10;99.90
13848;DHT22;6994;49.752;6.094;2024-03-23T15:53:49;7.90;99.90
13848;DHT22;6994;49.752;6.094;2024-03-23T15:56:16;7.80;99.90
13848;DHT22;6994;49.752;6.094;2024-03-23T15:58:44;7.70;99.90
13848;DHT22;6994;49.752;6.094;2024-03-23T16:01:11;7.60;99.90
13848;DHT22;6994;49.752;6.094;2024-03-23T16:03:38;7.50;99.90
13848;DHT22;6994;49.752;6.094;2024-03-23T16:06:06;7.60;99.90
13848;DHT22;6994;49.752;6.094;2024-03-23T16:08:32;7.70;99.90
13848;DHT22;6994;49.752;6.094;2024-03-23T16:11:03;7.80;99.90
13848;DHT22;6994;49.752;6.094;2024-03-23T16:13:30;7.90;99.90
13848;DHT22;6994;49.752;6.094;2024-03-23T16:16:01;7.90;99.90
13848;DHT22;6994;49.752;6.094;2024-03-23T16:18:24;7.90;99.90
13848;DHT22;6994;49.752;6.094;2024-03-23T16:20:55;7.90;99.90
13848;DHT22;6994;49.752;6.094;2024-03-23T16:23:21;8.10;99.90
13848;DHT22;6994;49.752;6.094;2024-03-23T16:25:52;8.20;99.90
13848;DHT22;6994;49.752;6.094;2024-03-23T16:28:37;8.40;99.90
13848;DHT22;6994;49.752;6.094;2024-03-23T16:31:09;8.40;99.90
13848;DHT22;6994;49.752;6.094;2024-03-23T16:33:34;8.40;99.90
13848;DHT22;6994;49.752;6.094;2024-03-23T16:36:04;8.50;99.90
13848;DHT22;6994;49.752;6.094;2024-03-23T16:38:31;8.50;99.90
13848;DHT22;6994;49.752;6.094;2024-03-23T16:41:01;8.60;99.90
13848;DHT22;6994;49.752;6.094;2024-03-23T16:43:28;8.70;99.90
13848;DHT22;6994;49.752;6.094;2024-03-23T16:45:59;8.50;99.90
13848;DHT22;6994;49.752;6.094;2024-03-23T16:48:28;8.50;99.90
13848;DHT22;6994;49.752;6.094;2024-03-23T16:50:53;8.40;99.90
13848;DHT22;6994;49.752;6.094;2024-03-23T16:53:20;8.20;99.90
13848;DHT22;6994;49.752;6.094;2024-03-23T16:55:47;8.10;99.90
13848;DHT22;6994;49.752;6.094;2024-03-23T16:58:14;7.90;99.90
13848;DHT22;6994;49.752;6.094;2024-03-23T17:00:41;7.80;99.90